Latest Coastal Weather Observations for Mornington Island

IDQ60701

Issued at 11:25 am EST Friday 25 October 2013 (issued every 10 minutes, with the page automatically refreshed every 10 minutes)

About coastal observations | Map of coastal stations | Coastal observations for QLD | Marine services | Other Formats
Station Details ID: 029039 Name: MORNINGTON ISLAND Lat: -16.66 Lon: 139.18 Height: 8.5 m
Data from the previous 72 hours. | See also: Recent months at Mornington Island
Date/Time
EST
Temp

°C
Wind Pressure Rain
since 9am
mm
Weather Cloud Vis
km
Sea
Height
m
Swell
Dir
 
Speed
knots
Gust
knots
hPa Trend Height
m
Period
s
Dir
25/11:00am 33.6 SE 15 21 1013.0 - 0.0 - - - - - - -
25/10:30am 32.4 SE 16 22 1013.2 - 0.0 - - - - - - -
25/10:16am 32.3 SE 16 26 1013.3 - 0.0 - - - - - - -
25/10:00am 32.7 ESE 15 22 1013.2 - 0.0 - - - - - - -
25/09:30am 31.3 SSE 12 20 1013.3 - 0.0 - - - - - - -
25/09:00am 31.3 SSE 12 19 1013.3 - 0.0 - - - - - - -
25/08:30am 30.9 SSE 12 21 1013.0 - 0.0 - - - - - - -
25/08:00am 30.8 SSE 12 22 1012.7 - 0.0 - - - - - - -
25/07:30am 30.4 SSE 11 19 1012.3 - 0.0 - - - - - - -
25/07:00am 30.1 SSE 11 20 1012.0 - 0.0 - - - - - - -
25/06:30am 29.6 SSE 10 17 1011.8 - 0.0 - - - - - - -
25/06:00am 29.5 SSE 11 18 1011.5 - 0.0 - - - - - - -
25/05:30am 29.6 SSE 10 17 1011.1 - 0.0 - - - - - - -
25/05:00am 29.5 SSE 10 16 1010.8 - 0.0 - - - - - - -
25/04:30am 29.6 SSE 10 17 1010.7 - 0.0 - - - - - - -
25/04:00am 28.1 S 7 14 1010.3 - 0.0 - - - - - - -
25/03:30am 28.4 S 7 12 1010.4 - 0.0 - - - - - - -
25/03:00am 28.5 SW 7 13 1010.4 - 0.0 - - - - - - -
25/02:30am 28.1 WSW 9 13 1010.4 - 0.0 - - - - - - -
25/02:00am 28.0 WSW 10 13 1010.5 - 0.0 - - - - - - -
25/01:30am 28.4 W 11 16 1010.6 - 0.0 - - - - - - -
25/01:00am 28.1 W 11 15 1010.9 - 0.0 - - - - - - -
25/12:30am 27.7 WNW 9 11 1010.6 - 0.0 - - - - - - -
25/12:00am 27.8 WNW 9 11 1010.5 - 0.0 - - - - - - -
 
Date/Time
EST
Temp

°C
Wind Pressure Rain
since 9am
mm
Weather Cloud Vis
km
Sea
Height
m
Swell
Dir
 
Speed
knots
Gust
knots
hPa Trend Height
m
Period
s
Dir
24/11:30pm 27.7 NW 8 10 1010.9 - 0.0 - - - - - - -
24/11:00pm 27.6 NNW 7 9 1010.7 - 0.0 - - - - - - -
24/10:30pm 27.6 NNW 7 9 1010.5 - 0.0 - - - - - - -
24/10:00pm 27.6 NNW 7 8 1010.6 - 0.0 - - - - - - -
24/09:30pm 27.7 N 7 10 1010.4 - 0.0 - - - - - - -
24/09:00pm 27.8 N 7 9 1010.2 - 0.0 - - - - - - -
24/08:30pm 27.8 N 7 9 1010.2 - 0.0 - - - - - - -
24/08:00pm 27.9 N 7 9 1010.0 - 0.0 - - - - - - -
24/07:30pm 28.0 N 9 14 1009.6 - 0.0 - - - - - - -
24/07:00pm 28.3 N 10 14 1009.4 - 0.0 - - - - - - -
24/06:30pm 29.0 N 9 14 1009.2 - 0.0 - - - - - - -
24/06:00pm 29.9 N 10 13 1009.1 - 0.0 - - - - - - -
24/05:30pm 30.4 N 9 12 1008.9 - 0.0 - - - - - - -
24/05:00pm 31.0 N 9 12 1008.9 - 0.0 - - - - - - -
24/04:30pm 30.5 N 10 14 1008.9 - 0.0 - - - - - - -
24/04:00pm 30.8 NNW 12 14 1009.3 - 0.0 - - - - - - -
24/03:30pm 30.6 NW 10 13 1009.5 - 0.0 - - - - - - -
24/03:00pm 31.3 WNW 9 11 1009.8 - 0.0 - - - - - - -
24/02:30pm 31.2 WNW 11 13 1010.1 - 0.0 - - - - - - -
24/02:00pm 31.0 WNW 10 13 1010.5 - 0.0 - - - - - - -
24/01:30pm 30.9 WNW 11 13 1010.8 - 0.0 - - - - - - -
24/01:00pm 31.0 NW 11 14 1011.4 - 0.0 - - - - - - -
24/12:30pm 33.7 ESE 6 10 1012.1 - 0.0 - - - - - - -
24/12:00pm 32.4 SE 7 10 1012.4 - 0.0 - - - - - - -
24/11:30am 32.4 ESE 11 16 1012.8 - 0.0 - - - - - - -
24/11:00am 31.8 ESE 11 18 1013.0 - 0.0 - - - - - - -
24/10:30am 30.6 E 15 20 1013.1 - 0.0 - - - - - - -
24/10:00am 30.6 SE 12 17 1013.2 - 0.0 - - - - - - -
24/09:30am 30.8 SE 8 13 1013.0 - 0.0 - - - - - - -
24/09:00am 30.6 SSE 8 12 1012.8 - 0.0 - - - - - - -
24/08:30am 30.0 SE 6 8 1012.4 - 0.0 - - - - - - -
24/08:00am 30.2 SE 5 7 1012.2 - 0.0 - - - - - - -
24/07:30am 28.9 S 3 5 1011.8 - 0.0 - - - - - - -
24/07:00am 27.9 ESE 2 4 1011.6 - 0.0 - - - - - - -
24/06:30am 27.1 SSE 3 5 1011.5 - 0.0 - - - - - - -
24/06:00am 27.4 SSW 7 13 1010.9 - 0.0 - - - - - - -
24/05:30am 27.3 SW 7 13 1010.5 - 0.0 - - - - - - -
24/05:00am 27.4 WSW 8 12 1009.6 - 0.0 - - - - - - -
24/04:30am 27.6 WSW 8 14 1009.2 - 0.0 - - - - - - -
24/04:00am 28.0 W 10 15 1009.0 - 0.0 - - - - - - -
24/03:30am 28.1 W 10 14 1009.1 - 0.0 - - - - - - -
24/03:00am 28.0 W 10 13 1008.7 - 0.0 - - - - - - -
24/02:30am 27.9 W 10 12 1008.8 - 0.0 - - - - - - -
24/02:00am 27.9 WNW 10 13 1008.9 - 0.0 - - - - - - -
24/01:30am 27.9 WNW 9 11 1009.3 - 0.0 - - - - - - -
24/01:00am 27.9 WNW 9 11 1009.5 - 0.0 - - - - - - -
24/12:30am 27.9 NNW 7 9 1009.5 - 0.0 - - - - - - -
24/12:00am 27.3 N 5 8 1009.4 - 0.0 - - - - - - -
 
Date/Time
EST
Temp

°C
Wind Pressure Rain
since 9am
mm
Weather Cloud Vis
km
Sea
Height
m
Swell
Dir
 
Speed
knots
Gust
knots
hPa Trend Height
m
Period
s
Dir
23/11:30pm 27.4 N 7 9 1009.4 - 0.0 - - - - - - -
23/11:00pm 27.3 N 5 6 1010.1 - 0.0 - - - - - - -
23/10:30pm 27.5 N 5 7 1010.2 - 0.0 - - - - - - -
23/10:00pm 27.7 N 7 8 1010.2 - 0.0 - - - - - - -
23/09:30pm 27.8 N 7 9 1010.2 - 0.0 - - - - - - -
23/09:00pm 28.1 NNW 8 11 1010.0 - 0.0 - - - - - - -
23/08:30pm 27.9 N 7 10 1009.7 - 0.0 - - - - - - -
23/08:00pm 28.0 N 6 8 1009.5 - 0.0 - - - - - - -
23/07:30pm 28.2 N 8 10 1009.6 - 0.0 - - - - - - -
23/07:00pm 28.3 NNW 8 10 1009.5 - 0.0 - - - - - - -
23/06:30pm 28.6 NNW 8 10 1009.4 - 0.0 - - - - - - -
23/06:00pm 28.7 NNW 8 11 1009.2 - 0.0 - - - - - - -
23/05:30pm 29.2 N 10 13 1008.9 - 0.0 - - - - - - -
23/05:00pm 30.4 N 11 13 1008.9 - 0.0 - - - - - - -
23/04:30pm 31.0 N 12 18 1008.7 - 0.0 - - - - - - -
23/04:00pm 31.1 NNW 13 20 1008.9 - 0.0 - - - - - - -
23/03:30pm 30.5 N 13 22 1008.8 - 0.0 - - - - - - -
23/03:00pm 31.3 NNW 13 19 1009.0 - 0.0 - - - - - - -
23/02:30pm 31.6 NNW 14 19 1009.4 - 0.0 - - - - - - -
23/02:00pm 30.9 NNW 14 20 1009.7 - 0.0 - - - - - - -
23/01:30pm 31.7 NNW 15 20 1009.9 - 0.0 - - - - - - -
23/01:00pm 32.2 NNW 16 20 1010.4 - 0.0 - - - - - - -
23/12:30pm 32.9 N 13 19 1010.9 - 0.0 - - - - - - -
23/12:00pm 32.9 N 13 20 1011.3 - 0.0 - - - - - - -
23/11:30am 32.0 N 13 16 1011.9 - 0.0 - - - - - - -
23/11:00am 32.0 N 12 18 1011.9 - 0.0 - - - - - - -
23/10:30am 32.3 N 11 16 1012.0 - 0.0 - - - - - - -
23/10:00am 31.9 NE 9 15 1012.0 - 0.0 - - - - - - -
23/09:30am 31.6 NNE 10 15 1012.1 - 0.0 - - - - - - -
23/09:00am 30.5 ENE 10 14 1012.1 - 0.0 - - - - - - -
23/08:30am 29.6 ENE 11 16 1012.0 - 0.0 - - - - - - -
23/08:00am 28.7 E 5 8 1011.9 - 0.0 - - - - - - -
23/07:30am 27.4 E 6 7 1011.5 - 0.0 - - - - - - -
23/07:00am 26.3 E 6 7 1011.2 - 0.0 - - - - - - -
23/06:30am 26.3 S 2 5 1010.7 - 0.0 - - - - - - -
23/06:00am 26.2 WSW 6 9 1009.9 - 0.0 - - - - - - -
23/05:30am 26.6 SW 6 9 1009.7 - 0.0 - - - - - - -
23/05:00am 27.0 SW 6 10 1009.4 - 0.0 - - - - - - -
23/04:30am 27.2 WSW 6 8 1009.0 - 0.0 - - - - - - -
23/04:00am 27.5 W 7 10 1008.8 - 0.0 - - - - - - -
23/03:30am 27.6 W 8 11 1008.5 - 0.0 - - - - - - -
23/03:00am 27.6 W 8 12 1008.7 - 0.0 - - - - - - -
23/02:30am 27.6 W 8 11 1008.9 - 0.0 - - - - - - -
23/02:00am 27.6 W 8 10 1009.1 - 0.0 - - - - - - -
23/01:30am 27.3 W 6 7 1009.1 - 0.0 - - - - - - -
23/01:00am 27.3 WNW 7 9 1009.3 - 0.0 - - - - - - -
23/12:30am 27.4 NW 8 10 1009.5 - 0.0 - - - - - - -
23/12:00am 27.5 NW 8 9 1009.9 - 0.0 - - - - - - -
 
Date/Time
EST
Temp

°C
Wind Pressure Rain
since 9am
mm
Weather Cloud Vis
km
Sea
Height
m
Swell
Dir
 
Speed
knots
Gust
knots
hPa Trend Height
m
Period
s
Dir
22/11:30pm 27.5 NW 8 10 1010.3 - 0.0 - - - - - - -
22/11:00pm 27.5 NW 8 9 1010.6 - 0.0 - - - - - - -
22/10:30pm 27.5 NW 7 8 1010.7 - 0.0 - - - - - - -
22/10:00pm 27.1 NNW 5 7 1010.6 - 0.0 - - - - - - -
22/09:30pm 26.9 NNW 5 7 1010.4 - 0.0 - - - - - - -
22/09:00pm 26.8 NNW 4 6 1010.2 - 0.0 - - - - - - -
22/08:30pm 27.1 N 6 7 1010.0 - 0.0 - - - - - - -
22/08:00pm 27.4 NNW 7 9 1010.1 - 0.0 - - - - - - -
22/07:30pm 27.3 N 5 7 1010.0 - 0.0 - - - - - - -
22/07:00pm 27.5 N 7 9 1010.0 - 0.0 - - - - - - -
22/06:30pm 28.1 N 8 10 - - 0.0 - - - - - - -
22/06:00pm 28.4 N 9 11 1009.8 - 0.0 - - - - - - -
22/05:30pm 28.9 N 10 13 1009.6 - 0.0 - - - - - - -
22/05:00pm 29.5 N 11 14 1009.6 - 0.0 - - - - - - -
22/04:30pm 29.7 NNW 11 16 1009.5 - 0.0 - - - - - - -
22/04:00pm 29.6 NNW 12 16 1009.5 - 0.0 - - - - - - -
22/03:30pm 30.6 N 12 18 1009.6 - 0.0 - - - - - - -
22/03:00pm 30.6 N 13 18 1009.6 - 0.0 - - - - - - -
22/02:30pm 31.4 N 12 18 1009.9 - 0.0 - - - - - - -
22/02:00pm 31.3 N 14 19 1010.2 - 0.0 - - - - - - -
22/01:30pm 31.2 N 14 20 1010.5 - 0.0 - - - - - - -
22/01:00pm 31.6 N 15 22 1010.9 - 0.0 - - - - - - -
22/12:30pm 32.0 N 15 21 1011.1 - 0.0 - - - - - - -
22/12:00pm 31.3 N 15 20 1011.6 - 0.0 - - - - - - -
22/11:30am 31.0 N 15 21 1011.9 - 0.0 - - - - - - -

Other Formats:

Comma delimited format used in spreadsheet applications
http://www.bom.gov.au/fwo/IDQ60701/IDQ60701.94256.axf

JavaScript Object Notation format (JSON) in row-major order
http://www.bom.gov.au/fwo/IDQ60701/IDQ60701.94256.json